createdAt,value
2023-03-01T00:01:57.449Z,101163.06
2023-03-01T00:04:24.122Z,101162.97
2023-03-01T00:06:50.883Z,101160.41
2023-03-01T00:09:18.361Z,101161.38
2023-03-01T00:11:46.046Z,101172.78
2023-03-01T00:14:13.089Z,101164.47
2023-03-01T00:16:42.628Z,101166.22
2023-03-01T00:19:16.464Z,101166.25
2023-03-01T00:21:43.443Z,101169.56
2023-03-01T00:24:11.003Z,101170.19
2023-03-01T00:26:38.759Z,101177.22
2023-03-01T00:29:05.640Z,101178.09
2023-03-01T00:31:33.694Z,101175.47
2023-03-01T00:34:04.637Z,101176.38
2023-03-01T00:36:35.143Z,101176.06
2023-03-01T00:39:02.112Z,101182.16
2023-03-01T00:41:28.860Z,101179.72
2023-03-01T00:43:55.947Z,101179.56
2023-03-01T00:46:26.537Z,101177.81
2023-03-01T00:48:53.793Z,101168.38
2023-03-01T00:51:23.882Z,101175.75
2023-03-01T00:53:59.252Z,101172.72
2023-03-01T00:56:26.362Z,101171.00
2023-03-01T00:58:53.063Z,101167.69
2023-03-01T01:01:22.741Z,101170.06
2023-03-01T01:03:53.056Z,101172.00
2023-03-01T01:06:23.044Z,101164.53
2023-03-01T01:08:50.476Z,101162.81
2023-03-01T01:11:17.756Z,101160.22
2023-03-01T01:13:47.592Z,101153.06
2023-03-01T01:16:15.428Z,101148.47
2023-03-01T01:18:42.188Z,101138.03
2023-03-01T01:21:12.364Z,101132.72
2023-03-01T01:23:40.879Z,101124.09
2023-03-01T01:26:13.832Z,101129.53
2023-03-01T01:28:40.544Z,101138.13
2023-03-01T01:31:07.380Z,101131.28
2023-03-01T01:33:34.828Z,101132.00
2023-03-01T01:36:01.917Z,101140.72
2023-03-01T01:38:28.652Z,101132.44
2023-03-01T01:40:55.414Z,101126.16
2023-03-01T01:43:25.341Z,101119.03
2023-03-01T01:45:56.465Z,101114.88
2023-03-01T01:48:28.118Z,101108.63
2023-03-01T01:51:00.698Z,101114.31
2023-03-01T01:53:27.820Z,101115.81
2023-03-01T01:55:59.589Z,101111.47
2023-03-01T01:58:29.344Z,101102.44
2023-03-01T02:00:56.478Z,101101.59
2023-03-01T02:03:31.290Z,101096.91
2023-03-01T02:06:05.302Z,101098.56
2023-03-01T02:08:36.863Z,101098.88
2023-03-01T02:11:03.848Z,101097.97
2023-03-01T02:13:32.717Z,101101.19
2023-03-01T02:15:59.847Z,101103.91
2023-03-01T02:18:27.012Z,101100.56
2023-03-01T02:21:08.012Z,101105.13
2023-03-01T02:23:35.266Z,101095.34
2023-03-01T02:26:22.109Z,101092.50
2023-03-01T02:28:48.936Z,101085.00
2023-03-01T02:31:19.212Z,101080.78
2023-03-01T02:33:47.010Z,101071.88
2023-03-01T02:36:20.036Z,101079.00
2023-03-01T02:38:49.279Z,101064.34
2023-03-01T02:41:18.836Z,101073.91
2023-03-01T02:43:45.837Z,101058.09
2023-03-01T02:46:23.463Z,101065.19
2023-03-01T02:48:53.172Z,101062.28
2023-03-01T02:51:35.066Z,101058.53
2023-03-01T02:54:23.312Z,101055.78
2023-03-01T02:56:50.457Z,101071.50
2023-03-01T02:59:24.311Z,101065.31
2023-03-01T03:01:51.058Z,101061.47
2023-03-01T03:04:20.097Z,101066.84
2023-03-01T03:06:48.929Z,101067.41
2023-03-01T03:09:17.108Z,101067.50
2023-03-01T03:11:46.214Z,101067.47
2023-03-01T03:14:16.261Z,101070.19
2023-03-01T03:16:45.262Z,101064.13
2023-03-01T03:19:12.780Z,101065.94
2023-03-01T03:21:42.340Z,101068.97
2023-03-01T03:24:09.463Z,101061.03
2023-03-01T03:26:36.331Z,101054.06
2023-03-01T03:29:03.584Z,101055.78
2023-03-01T03:31:30.285Z,101059.78
2023-03-01T03:33:57.254Z,101056.72
2023-03-01T03:36:25.357Z,101064.72
2023-03-01T03:38:52.472Z,101057.41
2023-03-01T03:41:19.214Z,101061.97
2023-03-01T03:43:46.130Z,101055.97
2023-03-01T03:46:13.160Z,101054.88
2023-03-01T03:48:42.978Z,101053.84
2023-03-01T03:51:15.290Z,101059.19
2023-03-01T03:53:43.195Z,101060.66
2023-03-01T03:56:12.845Z,101059.16
2023-03-01T03:58:39.549Z,101052.03
2023-03-01T04:01:06.607Z,101059.72
2023-03-01T04:03:34.682Z,101059.06
2023-03-01T04:06:02.147Z,101056.44
2023-03-01T04:08:29.620Z,101059.81
2023-03-01T04:11:04.532Z,101053.00
2023-03-01T04:13:31.185Z,101045.25
2023-03-01T04:15:57.890Z,101045.88
2023-03-01T04:18:25.300Z,101042.88
2023-03-01T04:20:53.819Z,101045.16
2023-03-01T04:23:21.780Z,101049.47
2023-03-01T04:25:53.677Z,101054.47
2023-03-01T04:28:36.806Z,101061.56
2023-03-01T04:31:09.640Z,101059.53
2023-03-01T04:33:36.379Z,101061.09
2023-03-01T04:36:03.189Z,101061.91
2023-03-01T04:38:30.070Z,101055.72
2023-03-01T04:40:56.801Z,101050.53
2023-03-01T04:43:23.466Z,101057.25
2023-03-01T04:45:50.185Z,101050.69
2023-03-01T04:48:16.905Z,101051.16
2023-03-01T04:50:43.545Z,101047.69
2023-03-01T04:53:10.229Z,101042.69
2023-03-01T04:55:36.847Z,101037.69
2023-03-01T04:58:03.678Z,101041.53
2023-03-01T05:00:30.575Z,101040.19
2023-03-01T05:02:59.791Z,101041.09
2023-03-01T05:05:27.994Z,101032.22
2023-03-01T05:07:56.956Z,101042.25
2023-03-01T05:10:24.884Z,101037.47
2023-03-01T05:12:52.292Z,101042.38
2023-03-01T05:15:19.142Z,101043.75
2023-03-01T05:17:45.786Z,101038.91
2023-03-01T05:20:12.564Z,101045.53
2023-03-01T05:22:39.440Z,101042.00
2023-03-01T05:25:06.636Z,101042.03
2023-03-01T05:27:33.275Z,101044.91
2023-03-01T05:29:59.905Z,101042.78
2023-03-01T05:32:26.626Z,101040.09
2023-03-01T05:34:53.490Z,101043.72
2023-03-01T05:37:20.249Z,101049.66
2023-03-01T05:39:47.791Z,101055.41
2023-03-01T05:42:15.599Z,101045.72
2023-03-01T05:44:42.294Z,101049.34
2023-03-01T05:47:08.993Z,101046.97
2023-03-01T05:49:36.020Z,101049.56
2023-03-01T05:52:03.599Z,101047.91
2023-03-01T05:54:30.189Z,101051.47
2023-03-01T05:56:57.303Z,101057.53
2023-03-01T05:59:26.591Z,101063.78
2023-03-01T06:01:53.564Z,101071.19
2023-03-01T06:04:20.206Z,101074.28
2023-03-01T06:06:47.011Z,101063.66
2023-03-01T06:09:13.663Z,101067.69
2023-03-01T06:11:40.442Z,101068.66
2023-03-01T06:14:07.258Z,101060.09
2023-03-01T06:16:33.935Z,101067.38
2023-03-01T06:19:00.571Z,101071.50
2023-03-01T06:21:27.339Z,101060.34
2023-03-01T06:23:54.123Z,101063.13
2023-03-01T06:26:20.801Z,101064.31
2023-03-01T06:28:47.620Z,101064.72
2023-03-01T06:31:14.563Z,101066.44
2023-03-01T06:33:41.324Z,101073.47
2023-03-01T06:36:09.097Z,101077.53
2023-03-01T06:38:35.856Z,101076.63
2023-03-01T06:41:02.584Z,101083.78
2023-03-01T06:43:29.344Z,101082.13
2023-03-01T06:45:56.619Z,101090.44
2023-03-01T06:48:23.290Z,101088.59
2023-03-01T06:50:50.011Z,101091.59
2023-03-01T06:53:16.893Z,101088.47
2023-03-01T06:55:43.853Z,101090.84
2023-03-01T06:58:10.890Z,101087.53
2023-03-01T07:00:37.548Z,101078.88
2023-03-01T07:03:04.470Z,101081.31
2023-03-01T07:05:31.710Z,101088.00
2023-03-01T07:07:58.537Z,101082.75
2023-03-01T07:10:25.798Z,101078.84
2023-03-01T07:12:55.962Z,101076.72
2023-03-01T07:15:22.713Z,101079.63
2023-03-01T07:17:49.354Z,101074.63
2023-03-01T07:20:16.238Z,101073.50
2023-03-01T07:22:42.995Z,101077.16
2023-03-01T07:25:10.820Z,101075.63
2023-03-01T07:27:37.524Z,101073.53
2023-03-01T07:30:04.726Z,101076.63
2023-03-01T07:32:31.626Z,101081.66
2023-03-01T07:34:58.440Z,101075.63
2023-03-01T07:37:25.296Z,101075.97
2023-03-01T07:39:51.969Z,101075.66
2023-03-01T07:42:18.839Z,101075.13
2023-03-01T07:44:45.660Z,101077.22
2023-03-01T07:47:12.610Z,101086.16
2023-03-01T07:49:39.226Z,101066.47
2023-03-01T07:52:05.898Z,101070.84
2023-03-01T07:54:32.638Z,101072.63
2023-03-01T07:56:59.369Z,101072.53
2023-03-01T07:59:26.098Z,101069.41
2023-03-01T08:01:52.794Z,101066.66
2023-03-01T08:04:19.538Z,101070.22
2023-03-01T08:06:46.274Z,101069.16
2023-03-01T08:09:12.930Z,101072.13
2023-03-01T08:11:39.888Z,101063.81
2023-03-01T08:14:07.610Z,101068.06
2023-03-01T08:16:34.772Z,101056.66
2023-03-01T08:19:09.521Z,101056.56
2023-03-01T08:21:36.765Z,101051.59
2023-03-01T08:24:05.536Z,101054.47
2023-03-01T08:26:33.531Z,101053.53
2023-03-01T08:29:01.991Z,101050.00
2023-03-01T08:31:41.132Z,101046.41
2023-03-01T08:34:12.038Z,101044.00
2023-03-01T08:36:41.178Z,101051.91
2023-03-01T08:39:09.885Z,101039.72
2023-03-01T08:41:37.270Z,101043.38
2023-03-01T08:44:04.727Z,101046.69
2023-03-01T08:46:40.326Z,101043.31
2023-03-01T08:49:17.909Z,101033.75
2023-03-01T08:51:46.004Z,101030.31
2023-03-01T08:54:15.671Z,101032.22
2023-03-01T08:56:43.041Z,101020.75
2023-03-01T08:59:11.881Z,101017.03
2023-03-01T09:01:38.730Z,101018.78
2023-03-01T09:04:05.433Z,101026.31
2023-03-01T09:06:34.830Z,101018.66
2023-03-01T09:09:02.148Z,101014.69
2023-03-01T09:11:29.708Z,101014.75
2023-03-01T09:13:56.570Z,101011.25
2023-03-01T09:16:24.398Z,101013.88
2023-03-01T09:18:53.691Z,101008.69
2023-03-01T09:21:37.222Z,100996.50
2023-03-01T09:24:07.781Z,100986.91
2023-03-01T09:26:34.540Z,100990.38
2023-03-01T09:29:01.223Z,100986.00
2023-03-01T09:31:27.923Z,100990.38
2023-03-01T09:33:55.864Z,100977.28
2023-03-01T09:36:25.149Z,100978.13
2023-03-01T09:38:52.117Z,100965.06
2023-03-01T09:41:18.702Z,100971.19
2023-03-01T09:43:55.346Z,100972.06
2023-03-01T09:46:25.722Z,100970.31
2023-03-01T09:48:59.863Z,100970.22
2023-03-01T09:51:35.605Z,100967.66
2023-03-01T09:54:05.238Z,100966.75
2023-03-01T09:56:53.306Z,100965.78
2023-03-01T09:59:38.061Z,100958.84
2023-03-01T10:02:39.721Z,100953.56
2023-03-01T10:05:16.383Z,100964.78
2023-03-01T10:08:04.736Z,100968.34
2023-03-01T10:10:41.111Z,100950.78
2023-03-01T10:13:24.409Z,100948.03
2023-03-01T10:16:13.522Z,100934.88
2023-03-01T10:18:41.230Z,100932.94
2023-03-01T10:21:14.825Z,100930.41
2023-03-01T10:23:41.482Z,100940.13
2023-03-01T10:26:31.536Z,100933.78
2023-03-01T10:29:05.672Z,100923.41
2023-03-01T10:31:50.918Z,100919.94
2023-03-01T10:34:28.088Z,100921.56
2023-03-01T10:36:58.550Z,100920.34
2023-03-01T10:39:26.724Z,100909.25
2023-03-01T10:42:00.743Z,100912.31
2023-03-01T10:44:44.930Z,100910.34
2023-03-01T10:47:19.657Z,100907.50
2023-03-01T10:50:19.946Z,100897.94
2023-03-01T10:53:01.101Z,100882.78
2023-03-01T10:55:29.266Z,100880.63
2023-03-01T10:58:08.100Z,100875.41
2023-03-01T11:00:57.045Z,100880.31
2023-03-01T11:03:27.099Z,100881.19
2023-03-01T11:05:56.413Z,100877.47
2023-03-01T11:08:46.825Z,100875.53
2023-03-01T11:11:21.308Z,100872.84
2023-03-01T11:13:57.157Z,100871.09
2023-03-01T11:16:33.574Z,100866.69
2023-03-01T11:19:21.649Z,100862.00
2023-03-01T11:22:15.413Z,100860.00
2023-03-01T11:24:47.314Z,100855.31
2023-03-01T11:27:26.148Z,100856.22
2023-03-01T11:30:04.419Z,100846.00
2023-03-01T11:32:58.687Z,100851.94
2023-03-01T11:35:27.818Z,100842.75
2023-03-01T11:38:12.675Z,100855.50
2023-03-01T11:41:17.322Z,100851.72
2023-03-01T11:44:06.589Z,100844.88
2023-03-01T11:46:33.341Z,100849.75
2023-03-01T11:49:28.121Z,100846.78
2023-03-01T11:52:10.057Z,100850.88
2023-03-01T11:54:56.257Z,100835.06
2023-03-01T11:57:46.109Z,100844.28
2023-03-01T12:00:37.673Z,100840.66
2023-03-01T12:03:32.013Z,100838.69
2023-03-01T12:06:33.927Z,100832.34
2023-03-01T12:09:12.475Z,100829.25
2023-03-01T12:11:45.555Z,100828.97
2023-03-01T12:14:21.012Z,100818.75
2023-03-01T12:17:09.151Z,100817.22
2023-03-01T12:20:02.164Z,100815.28
2023-03-01T12:22:53.916Z,100807.19
2023-03-01T12:25:40.809Z,100806.72
2023-03-01T12:28:10.293Z,100806.38
2023-03-01T12:31:02.946Z,100798.38
2023-03-01T12:34:05.601Z,100791.56
2023-03-01T12:36:56.312Z,100794.44
2023-03-01T12:40:00.820Z,100789.50
2023-03-01T12:42:33.151Z,100782.84
2023-03-01T12:45:24.246Z,100778.28
2023-03-01T12:48:03.617Z,100780.59
2023-03-01T12:50:48.680Z,100774.00
2023-03-01T12:53:25.897Z,100777.13
2023-03-01T12:56:16.748Z,100767.25
2023-03-01T12:58:50.142Z,100765.22
2023-03-01T13:01:36.366Z,100764.38
2023-03-01T13:04:24.914Z,100768.09
2023-03-01T13:06:59.690Z,100768.66
2023-03-01T13:09:29.429Z,100768.41
2023-03-01T13:11:58.240Z,100763.00
2023-03-01T13:14:24.892Z,100764.47
2023-03-01T13:16:53.610Z,100765.84
2023-03-01T13:19:23.492Z,100765.16
2023-03-01T13:21:53.050Z,100757.19
2023-03-01T13:24:40.197Z,100746.22
2023-03-01T13:27:06.914Z,100747.25
2023-03-01T13:29:54.742Z,100744.25
2023-03-01T13:32:43.050Z,100739.41
2023-03-01T13:35:16.720Z,100740.75
2023-03-01T13:37:46.539Z,100738.53
2023-03-01T13:40:19.249Z,100734.81
2023-03-01T13:42:59.322Z,100730.06
2023-03-01T13:45:44.330Z,100732.00
2023-03-01T13:48:18.673Z,100727.13
2023-03-01T13:50:54.101Z,100716.03
2023-03-01T13:53:25.803Z,100716.63
2023-03-01T13:55:59.510Z,100709.31
2023-03-01T13:58:31.574Z,100715.06
2023-03-01T14:01:08.776Z,100713.94
2023-03-01T14:03:42.289Z,100707.53
2023-03-01T14:06:15.854Z,100704.34
2023-03-01T14:08:45.870Z,100692.41
2023-03-01T14:11:30.993Z,100692.47
2023-03-01T14:14:36.304Z,100684.84
2023-03-01T14:17:17.271Z,100683.44
2023-03-01T14:19:55.440Z,100691.19
2023-03-01T14:22:30.838Z,100690.28
2023-03-01T14:25:03.805Z,100687.34
2023-03-01T14:27:39.590Z,100676.25
2023-03-01T14:30:18.833Z,100671.09
2023-03-01T14:32:57.196Z,100666.91
2023-03-01T14:35:30.013Z,100668.31
2023-03-01T14:37:56.742Z,100665.41
2023-03-01T14:40:33.144Z,100668.78
2023-03-01T14:43:03.870Z,100656.25
2023-03-01T14:45:31.663Z,100650.53
2023-03-01T14:48:04.282Z,100645.06
2023-03-01T14:50:36.658Z,100655.06
2023-03-01T14:53:06.226Z,100654.69
2023-03-01T14:55:40.181Z,100648.31
2023-03-01T14:58:12.092Z,100653.03
2023-03-01T15:00:40.725Z,100662.47
2023-03-01T15:03:21.667Z,100651.09
2023-03-01T15:05:48.607Z,100653.50
2023-03-01T15:08:21.898Z,100652.53
2023-03-01T15:11:03.849Z,100650.38
2023-03-01T15:13:35.914Z,100648.69
2023-03-01T15:16:09.258Z,100647.16
2023-03-01T15:18:37.698Z,100652.09
2023-03-01T15:21:28.835Z,100643.94
2023-03-01T15:23:57.348Z,100653.66
2023-03-01T15:26:40.920Z,100653.66
2023-03-01T15:29:18.965Z,100645.00
2023-03-01T15:32:02.629Z,100647.44
2023-03-01T15:34:35.192Z,100644.38
2023-03-01T15:37:04.505Z,100648.38
2023-03-01T15:39:34.961Z,100647.41
2023-03-01T15:42:01.660Z,100648.66
2023-03-01T15:44:41.597Z,100653.78
2023-03-01T15:47:32.823Z,100652.84
2023-03-01T15:50:01.469Z,100653.16
2023-03-01T15:52:37.032Z,100649.16
2023-03-01T15:55:07.537Z,100651.41
2023-03-01T15:57:34.170Z,100645.78
2023-03-01T16:00:01.006Z,100650.50
2023-03-01T16:02:27.848Z,100650.41
2023-03-01T16:04:55.749Z,100656.09
2023-03-01T16:07:22.492Z,100659.41
2023-03-01T16:09:49.233Z,100657.81
2023-03-01T16:12:17.824Z,100653.63
2023-03-01T16:14:44.807Z,100658.06
2023-03-01T16:17:11.662Z,100653.97
2023-03-01T16:19:39.602Z,100658.56
2023-03-01T16:22:06.334Z,100658.09
2023-03-01T16:24:33.092Z,100666.16
2023-03-01T16:26:59.745Z,100666.25
2023-03-01T16:29:26.415Z,100669.09
2023-03-01T16:31:53.314Z,100670.84
2023-03-01T16:34:20.094Z,100677.56
2023-03-01T16:36:49.097Z,100675.00
2023-03-01T16:39:16.794Z,100674.59
2023-03-01T16:41:43.670Z,100679.13
2023-03-01T16:44:10.420Z,100687.16
2023-03-01T16:46:37.294Z,100682.91
2023-03-01T16:49:03.973Z,100684.75
2023-03-01T16:51:30.954Z,100690.19
2023-03-01T16:53:58.979Z,100689.44
2023-03-01T16:56:25.887Z,100681.75
2023-03-01T16:58:52.609Z,100675.66
2023-03-01T17:01:21.374Z,100686.13
2023-03-01T17:03:48.355Z,100686.22
2023-03-01T17:06:19.443Z,100693.28
2023-03-01T17:08:46.125Z,100694.22
2023-03-01T17:11:18.403Z,100692.53
2023-03-01T17:13:45.505Z,100701.34
2023-03-01T17:16:15.745Z,100695.06
2023-03-01T17:18:43.100Z,100689.97
2023-03-01T17:21:10.871Z,100693.56
2023-03-01T17:23:39.379Z,100690.09
2023-03-01T17:26:07.168Z,100691.09
2023-03-01T17:28:38.540Z,100688.38
2023-03-01T17:31:07.315Z,100692.97
2023-03-01T17:33:34.188Z,100689.50
2023-03-01T17:36:01.420Z,100694.66
2023-03-01T17:38:28.177Z,100695.59
2023-03-01T17:40:57.480Z,100688.63
2023-03-01T17:43:24.189Z,100692.16
2023-03-01T17:45:50.989Z,100689.59
2023-03-01T17:48:18.205Z,100684.41
2023-03-01T17:50:45.440Z,100691.41
2023-03-01T17:53:13.339Z,100695.06
2023-03-01T17:55:41.794Z,100689.94
2023-03-01T17:58:10.485Z,100687.34
2023-03-01T18:00:37.373Z,100682.91
2023-03-01T18:03:04.812Z,100680.34
2023-03-01T18:05:36.414Z,100681.28
2023-03-01T18:08:03.693Z,100683.03
2023-03-01T18:10:32.510Z,100681.28
2023-03-01T18:12:59.256Z,100670.84
2023-03-01T18:15:28.977Z,100669.16
2023-03-01T18:17:55.873Z,100664.81
2023-03-01T18:20:22.813Z,100667.50
2023-03-01T18:22:49.473Z,100660.50
2023-03-01T18:25:16.186Z,100668.41
2023-03-01T18:27:42.999Z,100670.19
2023-03-01T18:30:10.410Z,100672.84
2023-03-01T18:32:37.331Z,100675.41
2023-03-01T18:35:04.315Z,100681.47
2023-03-01T18:37:30.921Z,100678.91
2023-03-01T18:39:57.684Z,100678.91
2023-03-01T18:42:24.647Z,100674.56
2023-03-01T18:44:51.254Z,100678.09
2023-03-01T18:47:17.864Z,100677.19
2023-03-01T18:49:44.768Z,100677.25
2023-03-01T18:52:11.772Z,100672.00
2023-03-01T18:54:38.678Z,100680.75
2023-03-01T18:57:05.348Z,100675.56
2023-03-01T18:59:32.715Z,100674.72
2023-03-01T19:01:59.513Z,100674.72
2023-03-01T19:04:26.244Z,100678.19
2023-03-01T19:06:52.889Z,100671.25
2023-03-01T19:09:19.528Z,100673.88
2023-03-01T19:11:46.271Z,100667.78
2023-03-01T19:14:13.110Z,100667.78
2023-03-01T19:16:39.803Z,100659.94
2023-03-01T19:19:06.972Z,100660.81
2023-03-01T19:21:34.175Z,100656.44
2023-03-01T19:24:01.658Z,100654.75
2023-03-01T19:26:28.712Z,100659.09
2023-03-01T19:28:55.928Z,100655.63
2023-03-01T19:31:26.073Z,100656.50
2023-03-01T19:33:59.532Z,100659.97
2023-03-01T19:36:32.591Z,100651.28
2023-03-01T19:39:02.028Z,100661.72
2023-03-01T19:41:29.569Z,100671.28
2023-03-01T19:43:56.677Z,100671.28
2023-03-01T19:46:24.161Z,100672.16
2023-03-01T19:48:53.066Z,100673.91
2023-03-01T19:51:20.067Z,100677.38
2023-03-01T19:53:46.750Z,100677.38
2023-03-01T19:56:13.540Z,100679.97
2023-03-01T19:58:40.208Z,100672.13
2023-03-01T20:01:15.604Z,100675.63
2023-03-01T20:03:42.498Z,100677.31
2023-03-01T20:06:15.204Z,100672.94
2023-03-01T20:08:42.452Z,100671.22
2023-03-01T20:11:11.386Z,100675.59
2023-03-01T20:13:38.345Z,100678.19
2023-03-01T20:16:06.225Z,100680.81
2023-03-01T20:18:33.684Z,100683.41
2023-03-01T20:21:00.471Z,100688.66
2023-03-01T20:23:27.991Z,100688.66
2023-03-01T20:26:11.856Z,100696.47
2023-03-01T20:28:38.748Z,100701.69
2023-03-01T20:31:07.933Z,100699.06
2023-03-01T20:33:34.678Z,100705.19
2023-03-01T20:36:01.818Z,100703.41
2023-03-01T20:38:28.621Z,100700.78
2023-03-01T20:41:05.182Z,100711.25
2023-03-01T20:43:33.012Z,100713.84
2023-03-01T20:46:03.756Z,100713.84
2023-03-01T20:48:30.647Z,100714.66
2023-03-01T20:50:57.245Z,100721.63
2023-03-01T20:53:23.930Z,100719.78
2023-03-01T20:55:50.563Z,100731.94
2023-03-01T20:58:17.223Z,100729.19
2023-03-01T21:00:43.942Z,100731.66
2023-03-01T21:03:10.667Z,100736.97
2023-03-01T21:05:37.261Z,100740.44
2023-03-01T21:08:04.165Z,100730.94
2023-03-01T21:10:31.119Z,100735.13
2023-03-01T21:12:57.794Z,100729.16
2023-03-01T21:15:29.449Z,100731.63
2023-03-01T21:17:56.600Z,100742.63
2023-03-01T21:20:23.945Z,100735.78
2023-03-01T21:22:50.575Z,100737.47
2023-03-01T21:25:17.562Z,100732.31
2023-03-01T21:27:44.269Z,100735.88
2023-03-01T21:30:11.669Z,100733.16
2023-03-01T21:32:38.419Z,100735.66
2023-03-01T21:35:05.698Z,100734.69
2023-03-01T21:37:32.427Z,100734.88
2023-03-01T21:39:59.070Z,100736.69
2023-03-01T21:42:25.712Z,100733.97
2023-03-01T21:44:52.401Z,100738.34
2023-03-01T21:47:19.004Z,100734.84
2023-03-01T21:49:45.963Z,100731.41
2023-03-01T21:52:12.889Z,100723.31
2023-03-01T21:54:39.521Z,100720.72
2023-03-01T21:57:06.216Z,100719.00
2023-03-01T21:59:33.045Z,100721.66
2023-03-01T22:01:59.692Z,100722.50
2023-03-01T22:04:26.625Z,100723.31
2023-03-01T22:06:53.432Z,100722.25
2023-03-01T22:09:23.906Z,100722.25
2023-03-01T22:11:53.643Z,100729.91
2023-03-01T22:14:21.180Z,100723.78
2023-03-01T22:16:48.721Z,100727.19
2023-03-01T22:19:16.486Z,100717.63
2023-03-01T22:21:45.631Z,100716.00
2023-03-01T22:24:13.076Z,100721.09
2023-03-01T22:26:42.584Z,100714.13
2023-03-01T22:29:15.638Z,100713.13
2023-03-01T22:31:43.146Z,100719.22
2023-03-01T22:34:10.419Z,100715.75
2023-03-01T22:36:37.361Z,100712.19
2023-03-01T22:39:04.025Z,100710.47
2023-03-01T22:41:36.833Z,100713.13
2023-03-01T22:44:03.892Z,100706.00
2023-03-01T22:46:31.138Z,100711.97
2023-03-01T22:48:58.090Z,100712.91
2023-03-01T22:51:35.001Z,100706.88
2023-03-01T22:54:01.883Z,100708.50
2023-03-01T22:56:32.582Z,100709.28
2023-03-01T22:59:04.628Z,100712.69
2023-03-01T23:01:31.706Z,100708.44
2023-03-01T23:03:58.320Z,100711.91
2023-03-01T23:06:25.338Z,100718.66
2023-03-01T23:08:54.585Z,100714.34
2023-03-01T23:11:23.573Z,100710.16
2023-03-01T23:13:51.295Z,100709.84
2023-03-01T23:16:18.775Z,100712.41
2023-03-01T23:18:48.109Z,100716.75
2023-03-01T23:21:18.261Z,100717.81
2023-03-01T23:23:46.211Z,100723.81
2023-03-01T23:26:13.997Z,100718.44
2023-03-01T23:28:41.178Z,100721.69
2023-03-01T23:31:11.633Z,100726.69
2023-03-01T23:33:38.265Z,100724.13
2023-03-01T23:36:14.760Z,100720.38
2023-03-01T23:38:41.810Z,100731.09
2023-03-01T23:41:13.531Z,100725.88
2023-03-01T23:43:40.336Z,100721.44
2023-03-01T23:46:07.104Z,100723.19
2023-03-01T23:48:33.750Z,100723.13
2023-03-01T23:51:06.985Z,100724.78
2023-03-01T23:53:36.752Z,100718.06
2023-03-01T23:56:03.979Z,100715.31
2023-03-01T23:58:30.640Z,100720.34
